Time;durP1;ratioP1;P1;durP2;ratioP2;P2;SDS_P1;SDS_P2;PMS_P1;PMS_P2;Temp;Humidity;BMP_temperature;BMP_pressure;BME280_temperature;BME280_humidity;BME280_pressure;Samples;Min_cycle;Max_cycle;Signal;HPM_P1;HPM_P2
2023/08/06 00:00:24;;;;;;;4.78;2.35;;;15.50;99.90;;;;;;5033200;28;20309;-50
2023/08/06 00:02:49;;;;;;;4.57;2.15;;;15.40;99.90;;;;;;5015013;28;20033;-49
2023/08/06 00:05:20;;;;;;;3.53;2.30;;;15.40;99.90;;;;;;5032716;28;20467;-50
2023/08/06 00:07:50;;;;;;;6.00;2.35;;;15.30;99.90;;;;;;5033062;28;20033;-52
2023/08/06 00:10:16;;;;;;;;;;;15.20;99.90;;;;;;5033520;28;20037;-48
2023/08/06 00:12:41;;;;;;;3.55;1.98;;;15.20;99.90;;;;;;5032481;28;19917;-48
2023/08/06 00:15:08;;;;;;;3.40;2.03;;;15.20;99.90;;;;;;5032559;28;20483;-50
2023/08/06 00:17:34;;;;;;;5.53;2.30;;;15.20;99.90;;;;;;5032815;28;20129;-50
2023/08/06 00:20:04;;;;;;;3.22;1.95;;;15.10;99.90;;;;;;5032763;28;20231;-49
2023/08/06 00:22:34;;;;;;;3.78;2.22;;;15.10;99.90;;;;;;5031180;28;20033;-52
2023/08/06 00:24:59;;;;;;;4.70;2.60;;;15.20;99.90;;;;;;5032371;28;20078;-49
2023/08/06 00:27:25;;;;;;;3.70;2.22;;;15.20;99.90;;;;;;5032571;28;20033;-51
2023/08/06 00:29:51;;;;;;;3.70;2.20;;;15.20;99.90;;;;;;5014757;28;20040;-49
2023/08/06 00:32:17;;;;;;;4.15;2.00;;;15.10;99.90;;;;;;5032187;28;20490;-50
2023/08/06 00:34:43;;;;;;;4.38;1.90;;;15.10;99.90;;;;;;5032125;28;20454;-53
2023/08/06 00:37:08;;;;;;;4.05;2.00;;;15.10;99.90;;;;;;5032410;28;20033;-52
2023/08/06 00:39:34;;;;;;;4.70;2.20;;;15.10;99.90;;;;;;5032181;28;20490;-53
2023/08/06 00:41:59;;;;;;;3.60;2.10;;;15.10;99.90;;;;;;5014278;28;20080;-52
2023/08/06 00:44:25;;;;;;;4.28;2.30;;;15.10;99.90;;;;;;4998139;28;20084;-54
2023/08/06 00:46:51;;;;;;;5.07;2.20;;;15.10;99.90;;;;;;5014254;28;20467;-52
2023/08/06 00:49:16;;;;;;;3.05;1.73;;;15.00;99.90;;;;;;5032081;28;20197;-52
2023/08/06 00:51:42;;;;;;;3.70;2.03;;;15.00;99.90;;;;;;5014332;28;20033;-50
2023/08/06 00:54:09;;;;;;;6.05;2.33;;;15.00;99.90;;;;;;5013932;28;20087;-52
2023/08/06 00:56:36;;;;;;;4.40;2.10;;;15.00;99.90;;;;;;5031778;28;20033;-50
2023/08/06 00:59:04;;;;;;;4.57;2.17;;;15.00;99.90;;;;;;5014167;28;20033;-49
2023/08/06 01:01:30;;;;;;;3.55;2.22;;;15.00;99.90;;;;;;5014042;28;20033;-49
2023/08/06 01:03:56;;;;;;;3.55;1.83;;;15.00;99.90;;;;;;5031712;28;20033;-51
2023/08/06 01:06:33;;;;;;;3.92;1.98;;;15.00;99.90;;;;;;5032015;28;20494;-53
2023/08/06 01:09:03;;;;;;;4.22;2.20;;;15.00;99.90;;;;;;5014036;28;20037;-53
2023/08/06 01:11:43;;;;;;;2.95;2.00;;;15.00;99.90;;;;;;5013813;28;20110;-51
2023/08/06 01:14:23;;;;;;;4.82;2.22;;;15.00;99.90;;;;;;5013668;28;20037;-48
2023/08/06 01:16:51;;;;;;;3.60;2.00;;;15.00;99.90;;;;;;5013720;28;20065;-50
2023/08/06 01:19:18;;;;;;;4.60;2.40;;;15.00;99.90;;;;;;5013782;28;20072;-49
2023/08/06 01:21:44;;;;;;;4.90;2.08;;;15.00;99.90;;;;;;4997407;28;20108;-54
2023/08/06 01:24:09;;;;;;;4.65;2.25;;;15.00;99.90;;;;;;5013715;28;20045;-52
2023/08/06 01:26:49;;;;;;;3.50;1.90;;;15.00;99.90;;;;;;5013507;28;20516;-49
2023/08/06 01:29:23;;;;;;;3.25;1.90;;;15.10;99.90;;;;;;5013637;28;20082;-49
2023/08/06 01:31:52;;;;;;;5.65;2.08;;;15.10;99.90;;;;;;5013321;28;20029;-49
2023/08/06 01:34:21;;;;;;;3.30;2.15;;;15.10;99.90;;;;;;5031139;28;20057;-54
2023/08/06 01:36:48;;;;;;;4.88;2.10;;;15.10;99.90;;;;;;5013334;28;20041;-50
2023/08/06 01:39:14;;;;;;;3.28;1.75;;;15.20;99.90;;;;;;5013648;28;20041;-49
2023/08/06 01:41:40;;;;;;;6.30;1.98;;;15.30;99.90;;;;;;5013380;28;20029;-51
2023/08/06 01:44:05;;;;;;;3.20;2.00;;;15.30;99.90;;;;;;5031060;28;20032;-54
2023/08/06 01:46:31;;;;;;;3.38;1.70;;;15.40;99.90;;;;;;5013259;28;20434;-50
2023/08/06 01:48:57;;;;;;;3.63;1.90;;;15.30;99.90;;;;;;5031146;28;20025;-52
2023/08/06 01:51:22;;;;;;;3.47;2.20;;;15.30;99.90;;;;;;5013192;28;20442;-54
2023/08/06 01:53:48;;;;;;;3.85;1.70;;;15.40;99.90;;;;;;5030771;28;20045;-52
2023/08/06 01:56:13;;;;;;;3.75;1.98;;;15.30;99.90;;;;;;5013102;28;20029;-54
2023/08/06 01:58:39;;;;;;;4.25;1.80;;;15.30;99.90;;;;;;5013159;28;20060;-49
2023/08/06 02:01:05;;;;;;;3.03;1.67;;;15.20;99.90;;;;;;5013488;28;20025;-53
2023/08/06 02:03:31;;;;;;;3.42;1.75;;;15.20;99.90;;;;;;5030626;28;20060;-52
2023/08/06 02:05:56;;;;;;;4.75;2.10;;;15.20;99.90;;;;;;5013022;28;20132;-54
2023/08/06 02:08:22;;;;;;;6.13;2.08;;;15.20;99.90;;;;;;5030837;28;20037;-51
2023/08/06 02:10:48;;;;;;;3.85;2.28;;;15.20;99.90;;;;;;5013102;28;20040;-54
2023/08/06 02:13:13;;;;;;;3.42;2.10;;;15.20;99.90;;;;;;5012661;28;20044;-54
2023/08/06 02:15:48;;;;;;;5.90;1.70;;;15.20;99.90;;;;;;5012861;28;20026;-51
2023/08/06 02:18:15;;;;;;;4.20;1.90;;;15.20;99.90;;;;;;5013221;28;20035;-54
2023/08/06 02:20:41;;;;;;;4.45;2.03;;;15.20;99.90;;;;;;5030880;28;20421;-51
2023/08/06 02:23:07;;;;;;;7.88;2.42;;;15.20;99.90;;;;;;5030699;28;20060;-49
2023/08/06 02:25:33;;;;;;;3.50;1.67;;;15.30;99.90;;;;;;5013075;28;20037;-53
2023/08/06 02:27:59;;;;;;;4.50;2.22;;;15.30;99.90;;;;;;5013123;28;20033;-53
2023/08/06 02:30:24;;;;;;;4.65;1.70;;;15.30;99.90;;;;;;5030926;28;20379;-54
2023/08/06 02:32:50;;;;;;;7.13;1.65;;;15.30;99.90;;;;;;5030463;28;20029;-53
2023/08/06 02:35:16;;;;;;;4.25;2.10;;;15.20;99.90;;;;;;5012800;28;20389;-52
2023/08/06 02:37:41;;;;;;;5.28;2.10;;;15.20;99.90;;;;;;5030679;28;20025;-49
2023/08/06 02:40:07;;;;;;;4.53;1.80;;;15.20;99.90;;;;;;5013180;28;20240;-54
2023/08/06 02:42:33;;;;;;;4.70;1.92;;;15.10;99.90;;;;;;5030309;28;20524;-53
2023/08/06 02:44:59;;;;;;;3.53;1.83;;;15.10;99.90;;;;;;5013933;28;20029;-54
2023/08/06 02:47:24;;;;;;;1.90;1.35;;;15.10;99.90;;;;;;5034682;28;20061;-51
2023/08/06 02:49:50;;;;;;;5.75;2.42;;;15.10;99.90;;;;;;5016823;28;20553;-52
2023/08/06 02:52:16;;;;;;;4.65;1.92;;;15.10;99.90;;;;;;5016394;28;20029;-54
2023/08/06 02:54:42;;;;;;;2.65;1.70;;;15.10;99.90;;;;;;5016479;28;20117;-54
2023/08/06 02:57:08;;;;;;;3.22;1.70;;;15.00;99.90;;;;;;5016438;28;20040;-54
2023/08/06 02:59:36;;;;;;;3.13;1.77;;;15.10;99.90;;;;;;5034235;28;20033;-53
2023/08/06 03:02:15;;;;;;;2.50;1.70;;;15.10;99.90;;;;;;5016255;28;20048;-54
2023/08/06 03:04:57;;;;;;;4.00;1.70;;;15.00;99.90;;;;;;5016160;28;20033;-52
2023/08/06 03:07:26;;;;;;;2.38;1.60;;;15.00;99.90;;;;;;5016146;28;20450;-54
2023/08/06 03:09:57;;;;;;;5.40;2.10;;;15.10;99.90;;;;;;5016328;28;20029;-54
2023/08/06 03:12:23;;;;;;;3.35;1.75;;;15.10;99.90;;;;;;5015953;28;20371;-54
2023/08/06 03:14:48;;;;;;;2.90;1.60;;;15.10;99.90;;;;;;5016088;28;20567;-55
2023/08/06 03:17:15;;;;;;;5.22;1.83;;;15.10;99.90;;;;;;5016167;28;20525;-51
2023/08/06 03:19:41;;;;;;;3.20;1.70;;;15.10;99.90;;;;;;5016142;28;20029;-54
2023/08/06 03:22:07;;;;;;;2.90;1.83;;;15.10;99.90;;;;;;5015553;28;20552;-54
2023/08/06 03:24:35;;;;;;;4.90;2.30;;;15.10;99.90;;;;;;5015946;28;20052;-54
2023/08/06 03:27:01;;;;;;;3.50;2.00;;;15.00;99.90;;;;;;5015687;28;20037;-53
2023/08/06 03:29:27;;;;;;;5.13;2.15;;;15.00;99.90;;;;;;5015890;28;20394;-53
2023/08/06 03:31:54;;;;;;;4.82;2.10;;;15.00;99.90;;;;;;5015561;28;20037;-48
2023/08/06 03:34:20;;;;;;;3.53;1.90;;;15.10;99.90;;;;;;5015674;28;20033;-54
2023/08/06 03:36:47;;;;;;;3.42;1.80;;;15.10;99.90;;;;;;5015496;28;20076;-52
2023/08/06 03:39:13;;;;;;;3.72;1.60;;;15.00;99.90;;;;;;5015668;28;20021;-50
2023/08/06 03:41:40;;;;;;;4.25;1.80;;;15.00;99.90;;;;;;5015556;28;20056;-53
2023/08/06 03:44:06;;;;;;;2.72;1.88;;;14.90;99.90;;;;;;5015484;28;20107;-54
2023/08/06 03:46:33;;;;;;;3.42;1.80;;;14.90;99.90;;;;;;5015367;28;20038;-51
2023/08/06 03:49:00;;;;;;;4.72;1.77;;;14.90;99.90;;;;;;5015504;28;20033;-52
2023/08/06 03:51:26;;;;;;;2.80;1.67;;;14.90;99.90;;;;;;5015407;28;20041;-53
2023/08/06 03:53:52;;;;;;;3.67;1.88;;;14.90;99.90;;;;;;5015428;28;20371;-54
2023/08/06 03:56:18;;;;;;;4.47;2.33;;;14.80;99.90;;;;;;5014890;28;20435;-53
2023/08/06 03:58:44;;;;;;;4.28;1.63;;;14.80;99.90;;;;;;5033142;28;20116;-53
2023/08/06 04:01:10;;;;;;;2.92;1.70;;;14.80;99.90;;;;;;5015278;28;20120;-52
2023/08/06 04:03:42;;;;;;;2.92;1.80;;;14.80;99.90;;;;;;5014978;28;20549;-51
2023/08/06 04:06:08;;;;;;;4.63;2.10;;;14.80;99.90;;;;;;5015119;28;20116;-53
2023/08/06 04:08:35;;;;;;;7.57;2.20;;;14.80;99.90;;;;;;5014990;28;20117;-50
2023/08/06 04:11:02;;;;;;;3.60;1.92;;;14.80;99.90;;;;;;5032858;28;20021;-52
2023/08/06 04:13:27;;;;;;;3.25;1.90;;;14.80;99.90;;;;;;5014804;28;20532;-53
2023/08/06 04:15:54;;;;;;;7.28;2.83;;;14.80;99.90;;;;;;5032935;28;20041;-54
2023/08/06 04:18:20;;;;;;;4.65;2.20;;;14.80;99.90;;;;;;5015007;28;20029;-51
2023/08/06 04:20:49;;;;;;;4.28;1.77;;;14.90;99.90;;;;;;5032969;28;20025;-53
2023/08/06 04:23:15;;;;;;;6.05;2.83;;;14.90;99.90;;;;;;5014735;28;20575;-52
2023/08/06 04:25:41;;;;;;;3.92;1.80;;;14.90;99.90;;;;;;5014650;28;20036;-50
2023/08/06 04:28:07;;;;;;;3.42;1.90;;;15.10;99.90;;;;;;5014858;28;20037;-51
2023/08/06 04:30:33;;;;;;;2.70;1.60;;;15.10;99.90;;;;;;5014667;28;20025;-50
2023/08/06 04:32:59;;;;;;;3.55;2.03;;;15.10;99.90;;;;;;5014314;28;20394;-52
2023/08/06 04:35:26;;;;;;;3.20;1.60;;;15.10;99.90;;;;;;5014450;28;20056;-53
2023/08/06 04:37:51;;;;;;;3.72;1.83;;;15.00;99.90;;;;;;5014542;28;20021;-49
2023/08/06 04:40:17;;;;;;;4.43;2.10;;;15.00;99.90;;;;;;5014612;28;20045;-49
2023/08/06 04:42:43;;;;;;;6.10;1.75;;;15.10;99.90;;;;;;5031982;28;20108;-49
2023/08/06 04:45:09;;;;;;;3.30;1.70;;;15.00;99.90;;;;;;5031972;28;20113;-49
2023/08/06 04:47:35;;;;;;;4.45;2.03;;;15.00;99.90;;;;;;5032222;28;20481;-54
2023/08/06 04:50:01;;;;;;;3.28;1.95;;;15.00;99.90;;;;;;5032400;28;20397;-53
2023/08/06 04:52:28;;;;;;;3.45;1.90;;;15.00;99.90;;;;;;5031726;28;20041;-54
2023/08/06 04:54:54;;;;;;;4.07;2.10;;;14.90;99.90;;;;;;5031751;28;20026;-53
2023/08/06 04:57:20;;;;;;;5.28;1.98;;;15.00;99.90;;;;;;5032065;28;20494;-53
2023/08/06 04:59:45;;;;;;;4.20;2.10;;;15.00;99.90;;;;;;5032264;28;20036;-52
2023/08/06 05:02:11;;;;;;;3.85;2.00;;;15.00;99.90;;;;;;5031654;28;20034;-54
2023/08/06 05:04:37;;;;;;;3.75;1.98;;;15.00;99.90;;;;;;5031886;28;20029;-54
2023/08/06 05:07:03;;;;;;;3.30;2.03;;;15.00;99.90;;;;;;5031123;28;20113;-50
2023/08/06 05:09:28;;;;;;;4.35;1.95;;;15.00;99.90;;;;;;5031650;28;20478;-52
2023/08/06 05:11:54;;;;;;;3.50;1.98;;;15.00;99.90;;;;;;5031600;28;20044;-51
2023/08/06 05:14:20;;;;;;;8.27;2.15;;;15.00;99.90;;;;;;5031486;28;20028;-53
2023/08/06 05:16:45;;;;;;;4.05;1.80;;;15.00;99.90;;;;;;5031368;28;20401;-53
2023/08/06 05:19:11;;;;;;;5.93;2.45;;;15.00;99.90;;;;;;5031686;28;20108;-52
2023/08/06 05:21:36;;;;;;;3.95;2.20;;;15.00;99.90;;;;;;5031403;28;20021;-54
2023/08/06 05:24:02;;;;;;;4.32;2.25;;;15.10;99.90;;;;;;4997178;28;20033;-49
2023/08/06 05:26:28;;;;;;;7.22;2.28;;;15.10;99.90;;;;;;5031377;28;20076;-50
2023/08/06 05:28:53;;;;;;;5.07;2.03;;;15.10;99.90;;;;;;5031456;28;20057;-53
2023/08/06 05:31:19;;;;;;;3.72;1.67;;;15.20;99.90;;;;;;5031233;28;20029;-49
2023/08/06 05:33:44;;;;;;;4.15;2.10;;;15.30;99.90;;;;;;5031185;28;20045;-52
2023/08/06 05:36:10;;;;;;;3.38;1.88;;;15.40;99.90;;;;;;5031205;28;20026;-51
2023/08/06 05:38:36;;;;;;;3.45;1.80;;;15.40;99.90;;;;;;5031330;28;20063;-53
2023/08/06 05:41:01;;;;;;;3.30;1.80;;;15.50;99.90;;;;;;5031283;28;20043;-54
2023/08/06 05:43:27;;;;;;;3.70;1.52;;;15.60;99.90;;;;;;5030997;28;20044;-50
2023/08/06 05:45:52;;;;;;;3.53;1.63;;;15.70;99.90;;;;;;5030919;28;20036;-52
2023/08/06 05:48:18;;;;;;;3.88;1.65;;;15.70;99.90;;;;;;5031399;28;20080;-52
2023/08/06 05:50:44;;;;;;;4.05;1.65;;;15.70;99.90;;;;;;5031338;28;20095;-54
2023/08/06 05:53:09;;;;;;;3.55;1.35;;;15.70;99.90;;;;;;5013560;28;20044;-53
2023/08/06 05:55:35;;;;;;;2.38;1.40;;;15.90;99.90;;;;;;5031186;28;20030;-49
2023/08/06 05:58:01;;;;;;;3.42;1.70;;;16.00;99.90;;;;;;5031299;28;20037;-52
2023/08/06 06:00:26;;;;;;;2.30;1.30;;;16.00;99.90;;;;;;5031232;28;20030;-54
2023/08/06 06:02:52;;;;;;;4.15;1.55;;;16.00;99.90;;;;;;5030726;28;20038;-51
2023/08/06 06:05:17;;;;;;;3.83;1.50;;;16.00;99.90;;;;;;5030720;28;20087;-51
2023/08/06 06:07:43;;;;;;;3.95;1.40;;;16.00;99.90;;;;;;5031089;28;20056;-50
2023/08/06 06:10:09;;;;;;;2.70;1.70;;;16.00;99.90;;;;;;5030900;28;20030;-53
2023/08/06 06:12:35;;;;;;;3.45;1.55;;;16.10;99.90;;;;;;5030369;28;20032;-52
2023/08/06 06:15:01;;;;;;;4.32;1.90;;;16.10;99.90;;;;;;5030596;28;20791;-54
2023/08/06 06:17:27;;;;;;;2.58;1.33;;;16.20;99.90;;;;;;5030756;28;20025;-54
2023/08/06 06:19:52;;;;;;;4.82;1.40;;;16.30;99.90;;;;;;5030736;28;20072;-52
2023/08/06 06:22:18;;;;;;;3.17;1.35;;;16.40;99.90;;;;;;5030359;28;20485;-53
2023/08/06 06:24:44;;;;;;;6.38;1.50;;;16.50;99.90;;;;;;5030549;28;20040;-54
2023/08/06 06:27:09;;;;;;;3.22;1.65;;;16.60;99.90;;;;;;5030652;28;20045;-51
2023/08/06 06:29:35;;;;;;;4.07;1.23;;;16.60;99.90;;;;;;5012834;28;20064;-52
2023/08/06 06:32:00;;;;;;;2.83;1.50;;;16.60;99.90;;;;;;5030349;28;20128;-53
2023/08/06 06:34:26;;;;;;;3.15;1.35;;;16.60;99.90;;;;;;5012944;28;20034;-54
2023/08/06 06:36:52;;;;;;;2.95;1.50;;;16.60;99.90;;;;;;5030472;28;20095;-49
2023/08/06 06:39:17;;;;;;;3.08;1.48;;;16.60;99.90;;;;;;5012966;28;20044;-53
2023/08/06 06:41:44;;;;;;;2.85;1.30;;;16.60;99.90;;;;;;5030219;28;20057;-52
2023/08/06 06:44:20;;;;;;;3.03;1.40;;;16.60;99.90;;;;;;5012630;28;20060;-53
2023/08/06 06:46:45;;;;;;;2.45;1.33;;;16.70;99.90;;;;;;5030182;28;20053;-51
2023/08/06 06:49:11;;;;;;;4.28;2.20;;;16.70;99.90;;;;;;5030348;28;20021;-50
2023/08/06 06:51:37;;;;;;;3.28;1.65;;;16.90;99.90;;;;;;5030242;28;20496;-54
2023/08/06 06:54:02;;;;;;;3.80;1.50;;;16.90;99.90;;;;;;5030113;28;20029;-54
2023/08/06 06:56:28;;;;;;;3.30;1.50;;;16.90;99.90;;;;;;5030178;28;20529;-51
2023/08/06 06:58:53;;;;;;;3.58;1.30;;;17.00;99.90;;;;;;5012637;28;20025;-53
2023/08/06 07:01:19;;;;;;;5.68;1.55;;;17.00;99.90;;;;;;5030126;28;20021;-50
2023/08/06 07:03:45;;;;;;;3.35;1.60;;;17.10;99.90;;;;;;5030151;28;20049;-52
2023/08/06 07:06:12;;;;;;;4.03;1.80;;;17.20;99.90;;;;;;5029988;28;20033;-54
2023/08/06 07:08:37;;;;;;;2.92;1.60;;;17.30;99.90;;;;;;5030136;28;20038;-53
2023/08/06 07:11:05;;;;;;;3.58;1.55;;;17.40;99.90;;;;;;5030162;28;20030;-52
2023/08/06 07:13:31;;;;;;;3.17;1.50;;;17.80;99.90;;;;;;5029740;28;20040;-49
2023/08/06 07:15:57;;;;;;;4.03;1.70;;;18.30;99.90;;;;;;5029908;28;20025;-51
2023/08/06 07:18:23;;;;;;;1.77;1.15;;;18.70;99.90;;;;;;5030067;28;20482;-49
2023/08/06 07:20:53;;;;;;;2.88;1.65;;;19.00;99.90;;;;;;5030008;28;20034;-54
2023/08/06 07:23:24;;;;;;;2.70;1.30;;;19.00;99.90;;;;;;5012446;28;20405;-53
2023/08/06 07:25:50;;;;;;;3.50;1.40;;;19.20;99.90;;;;;;5029785;28;20061;-53
2023/08/06 07:28:16;;;;;;;2.20;1.40;;;19.30;99.90;;;;;;5030050;28;20436;-49
2023/08/06 07:30:43;;;;;;;2.92;1.50;;;19.00;99.90;;;;;;5030736;28;20026;-50
2023/08/06 07:33:09;;;;;;;1.92;1.40;;;19.00;99.90;;;;;;5015454;28;20041;-53
2023/08/06 07:35:36;;;;;;;3.17;1.40;;;19.00;99.90;;;;;;5033364;28;20125;-51
2023/08/06 07:38:01;;;;;;;2.03;1.50;;;19.00;99.90;;;;;;5015835;28;20056;-52
2023/08/06 07:40:27;;;;;;;2.88;1.60;;;18.90;99.90;;;;;;5015526;28;20055;-49
2023/08/06 07:42:53;;;;;;;2.40;1.73;;;18.70;99.90;;;;;;5033460;28;20515;-54
2023/08/06 07:45:19;;;;;;;2.33;1.35;;;18.70;99.90;;;;;;5033187;28;20030;-50
2023/08/06 07:47:44;;;;;;;3.65;1.58;;;18.90;99.90;;;;;;5033480;28;20033;-49
2023/08/06 07:50:10;;;;;;;3.35;1.65;;;19.00;99.90;;;;;;5033190;28;20033;-52
2023/08/06 07:52:36;;;;;;;2.42;1.45;;;19.10;99.90;;;;;;5032946;28;20513;-53
2023/08/06 07:55:04;;;;;;;2.65;1.40;;;19.10;99.90;;;;;;5033054;28;20036;-49
2023/08/06 07:57:34;;;;;;;1.92;1.35;;;19.10;99.90;;;;;;5033129;28;20083;-51
2023/08/06 08:00:00;;;;;;;2.92;1.92;;;19.10;99.90;;;;;;5033315;28;20056;-49
2023/08/06 08:02:25;;;;;;;3.25;1.67;;;19.10;99.90;;;;;;5032868;28;20025;-50
2023/08/06 08:04:51;;;;;;;4.07;1.90;;;19.20;99.90;;;;;;5032930;28;20033;-50
2023/08/06 08:07:17;;;;;;;4.63;2.42;;;19.10;99.90;;;;;;5032910;28;20037;-49
2023/08/06 08:09:42;;;;;;;3.22;2.30;;;19.00;99.90;;;;;;5032843;28;20037;-50
2023/08/06 08:12:08;;;;;;;4.20;2.85;;;18.70;99.90;;;;;;5032820;28;20048;-48
2023/08/06 08:14:35;;;;;;;6.20;3.50;;;18.60;99.90;;;;;;5015255;28;20029;-49
2023/08/06 08:17:05;;;;;;;5.00;2.55;;;18.30;99.90;;;;;;5032760;28;20498;-48
2023/08/06 08:19:31;;;;;;;4.15;2.30;;;18.20;99.90;;;;;;5032747;28;20025;-48
2023/08/06 08:21:57;;;;;;;3.83;2.55;;;18.30;99.90;;;;;;5032455;28;20079;-48
2023/08/06 08:24:25;;;;;;;6.47;2.92;;;18.10;99.90;;;;;;5032424;28;20041;-48
2023/08/06 08:26:52;;;;;;;4.40;2.70;;;18.00;99.90;;;;;;5032424;28;20045;-50
2023/08/06 08:29:19;;;;;;;4.85;2.90;;;17.80;99.90;;;;;;5032581;28;20044;-49
2023/08/06 08:31:44;;;;;;;4.18;2.65;;;17.70;99.90;;;;;;5032298;28;20091;-50
2023/08/06 08:34:10;;;;;;;5.82;2.53;;;17.60;99.90;;;;;;5032274;28;20041;-49
2023/08/06 08:36:36;;;;;;;5.43;2.13;;;17.60;99.90;;;;;;5032697;28;20022;-53
2023/08/06 08:39:01;;;;;;;3.75;2.10;;;17.40;99.90;;;;;;5032268;28;20029;-52
2023/08/06 08:41:31;;;;;;;4.43;1.95;;;17.40;99.90;;;;;;5031915;28;20057;-51
2023/08/06 08:43:59;;;;;;;3.95;1.90;;;17.40;99.90;;;;;;5031380;28;20094;-51
2023/08/06 08:46:26;;;;;;;4.40;2.17;;;17.30;99.90;;;;;;5014554;28;20124;-49
2023/08/06 08:48:54;;;;;;;3.92;1.83;;;17.30;99.90;;;;;;5032335;28;20034;-49
2023/08/06 08:51:20;;;;;;;5.65;2.60;;;17.30;99.90;;;;;;5032062;28;20394;-52
2023/08/06 08:53:48;;;;;;;3.40;1.80;;;17.30;99.90;;;;;;5032164;28;20053;-50
2023/08/06 08:56:14;;;;;;;4.95;2.88;;;17.30;99.90;;;;;;5032191;28;20025;-49
2023/08/06 08:58:40;;;;;;;4.50;2.50;;;17.30;99.90;;;;;;5032138;28;20034;-54
2023/08/06 09:01:08;;;;;;;4.95;2.45;;;17.30;99.90;;;;;;5032086;28;20105;-50
2023/08/06 09:03:36;;;;;;;5.75;2.78;;;17.30;99.90;;;;;;5031669;28;20048;-49
2023/08/06 09:06:03;;;;;;;3.92;2.42;;;17.30;99.90;;;;;;5031734;28;20052;-50
2023/08/06 09:08:36;;;;;;;4.47;2.38;;;17.40;99.90;;;;;;5031834;28;20406;-51
2023/08/06 09:11:02;;;;;;;4.53;2.40;;;17.40;99.90;;;;;;5031900;28;20112;-51
2023/08/06 09:13:28;;;;;;;5.43;1.95;;;17.40;99.90;;;;;;5031433;28;20398;-53
2023/08/06 09:15:54;;;;;;;5.65;2.70;;;17.30;99.90;;;;;;5031574;28;20034;-51
2023/08/06 09:18:30;;;;;;;3.42;2.05;;;17.30;99.90;;;;;;5032011;28;20026;-51
2023/08/06 09:20:57;;;;;;;3.28;1.80;;;17.30;99.90;;;;;;5031630;28;20087;-53
2023/08/06 09:23:33;;;;;;;8.02;2.05;;;17.30;99.90;;;;;;5031342;28;20069;-52
2023/08/06 09:25:59;;;;;;;5.13;2.03;;;17.20;99.90;;;;;;5031264;28;20037;-50
2023/08/06 09:28:38;;;;;;;6.05;1.77;;;17.20;99.90;;;;;;5031381;28;20112;-51
2023/08/06 09:31:04;;;;;;;5.55;1.55;;;17.20;99.90;;;;;;5031437;28;20539;-48
2023/08/06 09:33:29;;;;;;;5.25;1.80;;;17.20;99.90;;;;;;5031043;28;20029;-50
2023/08/06 09:35:55;;;;;;;3.05;1.40;;;17.20;99.90;;;;;;5031079;28;20029;-50
2023/08/06 09:38:20;;;;;;;4.05;2.00;;;17.20;99.90;;;;;;5013575;28;20025;-52
2023/08/06 09:40:47;;;;;;;4.38;1.55;;;17.20;99.90;;;;;;5031127;28;20029;-48
2023/08/06 09:43:13;;;;;;;4.72;1.60;;;17.30;99.90;;;;;;5030933;28;20116;-52
2023/08/06 09:45:39;;;;;;;4.75;1.80;;;17.40;99.90;;;;;;5030817;28;20037;-54
2023/08/06 09:48:07;;;;;;;4.25;1.73;;;17.40;99.90;;;;;;5031253;28;20098;-50
2023/08/06 09:50:37;;;;;;;3.90;1.90;;;17.50;99.90;;;;;;5031084;28;20037;-53
2023/08/06 09:53:05;;;;;;;6.00;2.50;;;17.60;99.90;;;;;;5030579;28;20072;-52
2023/08/06 09:55:31;;;;;;;3.38;2.10;;;17.60;99.90;;;;;;5031092;28;20479;-49
2023/08/06 09:57:58;;;;;;;5.50;2.28;;;17.70;99.90;;;;;;5030817;28;20029;-51
2023/08/06 10:00:25;;;;;;;5.40;2.53;;;17.80;99.90;;;;;;5030907;28;20057;-49
2023/08/06 10:02:55;;;;;;;6.70;2.40;;;17.90;99.90;;;;;;5030502;28;20033;-53
2023/08/06 10:05:22;;;;;;;4.72;2.50;;;18.00;99.90;;;;;;5013079;28;20410;-52
2023/08/06 10:07:50;;;;;;;5.88;2.80;;;18.10;99.90;;;;;;5030640;28;20037;-52
2023/08/06 10:10:16;;;;;;;6.75;2.95;;;18.20;99.90;;;;;;5031006;28;20033;-49
2023/08/06 10:12:54;;;;;;;5.40;3.22;;;18.30;99.90;;;;;;5030434;28;20029;-50
2023/08/06 10:15:26;;;;;;;5.18;3.13;;;18.40;99.90;;;;;;5030718;28;20052;-51
2023/08/06 10:17:54;;;;;;;5.15;3.45;;;18.50;99.90;;;;;;5030854;28;20067;-52
2023/08/06 10:20:22;;;;;;;5.82;3.90;;;18.60;99.90;;;;;;5030725;28;20034;-54
2023/08/06 10:23:03;;;;;;;7.22;3.60;;;18.60;99.90;;;;;;5030332;28;20048;-51
2023/08/06 10:25:33;;;;;;;6.10;3.47;;;18.60;99.90;;;;;;5030460;28;20071;-50
2023/08/06 10:27:59;;;;;;;5.57;3.50;;;18.60;99.90;;;;;;5030517;28;20033;-53
2023/08/06 10:30:32;;;;;;;7.38;3.85;;;18.70;99.90;;;;;;5030824;28;20092;-51
2023/08/06 10:33:00;;;;;;;6.10;3.58;;;18.70;99.90;;;;;;5030097;28;20037;-53
2023/08/06 10:35:57;;;;;;;4.85;3.40;;;18.80;99.90;;;;;;5030118;28;20033;-53
2023/08/06 10:38:27;;;;;;;5.30;3.58;;;18.80;99.90;;;;;;5008857;28;20084;-53
2023/08/06 10:40:53;;;;;;;6.97;4.40;;;18.80;99.90;;;;;;5030547;28;20021;-54
2023/08/06 10:43:29;;;;;;;5.97;3.90;;;18.70;99.90;;;;;;5012448;28;20036;-54
2023/08/06 10:45:56;;;;;;;6.60;3.65;;;18.60;99.90;;;;;;5030309;28;20517;-53
2023/08/06 10:48:36;;;;;;;5.55;2.50;;;18.60;99.90;;;;;;5012700;28;20061;-53
2023/08/06 10:51:04;;;;;;;3.55;1.80;;;18.50;99.90;;;;;;5030303;28;20067;-53
2023/08/06 10:53:30;;;;;;;3.58;1.88;;;18.40;99.90;;;;;;5029933;28;20038;-53
2023/08/06 10:55:55;;;;;;;1.95;1.08;;;18.00;99.90;;;;;;5030139;28;20501;-53
2023/08/06 10:58:21;;;;;;;1.92;1.00;;;17.70;99.90;;;;;;5030297;28;20029;-51
2023/08/06 11:00:46;;;;;;;1.40;0.90;;;17.40;99.90;;;;;;5030175;28;20049;-54
2023/08/06 11:03:12;;;;;;;1.17;0.80;;;17.20;99.90;;;;;;5030059;28;20466;-54
2023/08/06 11:05:39;;;;;;;1.25;0.77;;;16.90;99.90;;;;;;5030582;28;20036;-51
2023/08/06 11:08:04;;;;;;;1.88;0.65;;;16.60;99.90;;;;;;5034033;28;20071;-54
2023/08/06 11:10:33;;;;;;;1.75;0.60;;;16.30;99.90;;;;;;5034010;28;20061;-51
2023/08/06 11:13:03;;;;;;;0.65;0.60;;;16.10;99.90;;;;;;5033552;28;20067;-52
2023/08/06 11:15:30;;;;;;;0.70;0.50;;;16.00;99.90;;;;;;5033706;28;20061;-49
2023/08/06 11:17:56;;;;;;;1.00;0.63;;;15.80;99.90;;;;;;5033972;28;20040;-54
2023/08/06 11:20:22;;;;;;;0.90;0.52;;;15.70;99.90;;;;;;5033860;28;20021;-51
2023/08/06 11:22:48;;;;;;;1.42;0.80;;;15.60;99.90;;;;;;5033627;28;20087;-54
2023/08/06 11:25:14;;;;;;;3.60;0.60;;;15.50;99.90;;;;;;5033559;28;20026;-53
2023/08/06 11:27:39;;;;;;;1.33;0.73;;;15.40;99.90;;;;;;5033680;28;20064;-54
2023/08/06 11:30:05;;;;;;;0.93;0.63;;;15.20;99.90;;;;;;5033668;28;20044;-53
2023/08/06 11:32:32;;;;;;;1.83;0.85;;;15.10;99.90;;;;;;5033410;28;20157;-53
2023/08/06 11:34:58;;;;;;;1.80;0.80;;;15.00;99.90;;;;;;5033489;28;20029;-54
2023/08/06 11:37:25;;;;;;;2.30;1.00;;;14.90;99.90;;;;;;5033733;28;20040;-51
2023/08/06 11:39:51;;;;;;;1.48;0.90;;;14.90;99.90;;;;;;5033624;28;20052;-55
2023/08/06 11:42:17;;;;;;;2.25;0.80;;;14.80;99.90;;;;;;5033235;28;20037;-52
2023/08/06 11:44:44;;;;;;;1.60;0.63;;;14.80;99.90;;;;;;5033429;28;20038;-50
2023/08/06 11:47:13;;;;;;;2.08;1.10;;;14.70;99.90;;;;;;5033820;28;20046;-52
2023/08/06 11:49:44;;;;;;;1.58;1.05;;;14.70;99.90;;;;;;5033666;28;20513;-51
2023/08/06 11:52:21;;;;;;;1.52;0.75;;;14.70;99.90;;;;;;5033467;28;20037;-50
2023/08/06 11:55:03;;;;;;;1.58;0.73;;;14.70;99.90;;;;;;5015338;28;20040;-49
2023/08/06 11:57:32;;;;;;;1.42;0.65;;;14.60;99.90;;;;;;5033255;28;20065;-50
2023/08/06 12:00:12;;;;;;;0.95;0.65;;;14.60;99.90;;;;;;5033101;28;20087;-53
2023/08/06 12:02:45;;;;;;;1.67;0.77;;;14.60;99.90;;;;;;5016212;28;20079;-54
2023/08/06 12:05:20;;;;;;;1.15;0.70;;;14.50;99.90;;;;;;5032838;28;20046;-51
2023/08/06 12:07:49;;;;;;;1.15;0.70;;;14.60;99.90;;;;;;5033064;28;20029;-53
2023/08/06 12:10:15;;;;;;;1.98;0.80;;;14.60;99.90;;;;;;5033065;28;20026;-53
2023/08/06 12:12:41;;;;;;;1.05;0.80;;;14.60;99.90;;;;;;5032606;28;20022;-49
2023/08/06 12:15:09;;;;;;;2.10;1.10;;;14.60;99.90;;;;;;5032643;28;20033;-51
2023/08/06 12:17:35;;;;;;;2.22;1.00;;;14.60;99.90;;;;;;5032541;28;20029;-53
2023/08/06 12:20:04;;;;;;;1.50;0.77;;;14.60;99.90;;;;;;5032808;28;20076;-54
2023/08/06 12:22:35;;;;;;;1.15;0.80;;;14.70;99.90;;;;;;5032329;28;20034;-50
2023/08/06 12:25:08;;;;;;;1.13;0.75;;;14.70;99.90;;;;;;5032491;28;20037;-52
2023/08/06 12:27:39;;;;;;;2.22;0.90;;;14.70;99.90;;;;;;5032715;28;20134;-52
2023/08/06 12:30:05;;;;;;;1.73;0.90;;;14.80;99.90;;;;;;5032538;28;20387;-50
2023/08/06 12:32:31;;;;;;;2.58;1.15;;;14.90;99.90;;;;;;5032575;28;20433;-51
2023/08/06 12:34:57;;;;;;;2.50;1.05;;;14.90;99.90;;;;;;5032351;28;20121;-51
2023/08/06 12:37:24;;;;;;;1.90;0.90;;;15.00;99.90;;;;;;5032558;28;20113;-54
2023/08/06 12:39:49;;;;;;;2.05;1.23;;;15.10;99.90;;;;;;5032658;28;20060;-54
2023/08/06 12:42:15;;;;;;;3.20;1.25;;;15.10;99.90;;;;;;5032124;28;20025;-52
2023/08/06 12:44:40;;;;;;;2.33;1.25;;;15.20;99.90;;;;;;5032173;28;20076;-53
2023/08/06 12:47:07;;;;;;;2.22;1.40;;;15.20;99.90;;;;;;5014356;28;20069;-53